sensor_id;sensor_type;location;lat;lon;timestamp;P1;durP1;ratioP1;P2;durP2;ratioP2
19599;SDS011;9947;57.722;12.012;2023-04-24T00:01:48;45.80;;;23.87;;
19599;SDS011;9947;57.722;12.012;2023-04-24T00:04:17;39.60;;;23.07;;
19599;SDS011;9947;57.722;12.012;2023-04-24T00:06:45;40.33;;;22.47;;
19599;SDS011;9947;57.722;12.012;2023-04-24T00:09:19;41.00;;;22.40;;
19599;SDS011;9947;57.722;12.012;2023-04-24T00:11:49;40.13;;;22.77;;
19599;SDS011;9947;57.722;12.012;2023-04-24T00:14:21;41.93;;;22.63;;
19599;SDS011;9947;57.722;12.012;2023-04-24T00:16:53;42.00;;;20.73;;
19599;SDS011;9947;57.722;12.012;2023-04-24T00:19:20;37.07;;;21.57;;
19599;SDS011;9947;57.722;12.012;2023-04-24T00:24:26;43.13;;;22.97;;
19599;SDS011;9947;57.722;12.012;2023-04-24T00:26:55;41.73;;;22.93;;
19599;SDS011;9947;57.722;12.012;2023-04-24T00:29:27;41.93;;;23.60;;
19599;SDS011;9947;57.722;12.012;2023-04-24T00:31:56;41.07;;;21.90;;
19599;SDS011;9947;57.722;12.012;2023-04-24T00:34:24;40.10;;;22.70;;
19599;SDS011;9947;57.722;12.012;2023-04-24T00:36:53;40.13;;;22.87;;
19599;SDS011;9947;57.722;12.012;2023-04-24T00:39:24;39.07;;;22.87;;
19599;SDS011;9947;57.722;12.012;2023-04-24T00:41:52;39.30;;;21.43;;
19599;SDS011;9947;57.722;12.012;2023-04-24T00:44:20;40.20;;;22.40;;
19599;SDS011;9947;57.722;12.012;2023-04-24T00:46:51;42.70;;;23.30;;
19599;SDS011;9947;57.722;12.012;2023-04-24T00:49:21;42.13;;;22.57;;
19599;SDS011;9947;57.722;12.012;2023-04-24T00:51:49;39.63;;;22.90;;
19599;SDS011;9947;57.722;12.012;2023-04-24T00:54:23;41.20;;;22.77;;
19599;SDS011;9947;57.722;12.012;2023-04-24T00:56:51;41.60;;;22.87;;
19599;SDS011;9947;57.722;12.012;2023-04-24T00:59:22;42.07;;;22.07;;
19599;SDS011;9947;57.722;12.012;2023-04-24T01:01:55;39.37;;;23.17;;
19599;SDS011;9947;57.722;12.012;2023-04-24T01:04:24;41.33;;;22.33;;
19599;SDS011;9947;57.722;12.012;2023-04-24T01:06:52;43.33;;;22.97;;
19599;SDS011;9947;57.722;12.012;2023-04-24T01:09:23;41.23;;;22.03;;
19599;SDS011;9947;57.722;12.012;2023-04-24T01:11:50;41.63;;;22.30;;
19599;SDS011;9947;57.722;12.012;2023-04-24T01:14:23;42.33;;;22.00;;
19599;SDS011;9947;57.722;12.012;2023-04-24T01:16:56;44.90;;;22.37;;
19599;SDS011;9947;57.722;12.012;2023-04-24T01:19:24;41.93;;;22.53;;
19599;SDS011;9947;57.722;12.012;2023-04-24T01:21:53;41.60;;;21.70;;
19599;SDS011;9947;57.722;12.012;2023-04-24T01:24:32;39.30;;;21.47;;
19599;SDS011;9947;57.722;12.012;2023-04-24T01:27:01;37.07;;;21.73;;
19599;SDS011;9947;57.722;12.012;2023-04-24T01:29:33;36.87;;;20.57;;
19599;SDS011;9947;57.722;12.012;2023-04-24T01:32:03;37.20;;;21.13;;
19599;SDS011;9947;57.722;12.012;2023-04-24T01:34:33;45.10;;;22.23;;
19599;SDS011;9947;57.722;12.012;2023-04-24T01:37:02;37.73;;;21.20;;
19599;SDS011;9947;57.722;12.012;2023-04-24T01:39:32;41.07;;;22.07;;
19599;SDS011;9947;57.722;12.012;2023-04-24T01:41:59;38.17;;;21.93;;
19599;SDS011;9947;57.722;12.012;2023-04-24T01:44:28;41.23;;;22.40;;
19599;SDS011;9947;57.722;12.012;2023-04-24T01:46:59;39.63;;;20.63;;
19599;SDS011;9947;57.722;12.012;2023-04-24T01:49:30;34.40;;;21.97;;
19599;SDS011;9947;57.722;12.012;2023-04-24T01:52:04;37.00;;;21.23;;
19599;SDS011;9947;57.722;12.012;2023-04-24T01:54:40;38.53;;;20.97;;
19599;SDS011;9947;57.722;12.012;2023-04-24T01:57:09;33.73;;;20.43;;
19599;SDS011;9947;57.722;12.012;2023-04-24T01:59:38;41.07;;;20.73;;
19599;SDS011;9947;57.722;12.012;2023-04-24T02:02:11;39.70;;;20.97;;
19599;SDS011;9947;57.722;12.012;2023-04-24T02:04:39;39.83;;;19.97;;
19599;SDS011;9947;57.722;12.012;2023-04-24T02:07:08;34.90;;;20.13;;
19599;SDS011;9947;57.722;12.012;2023-04-24T02:09:39;36.73;;;20.13;;
19599;SDS011;9947;57.722;12.012;2023-04-24T02:12:07;33.90;;;19.57;;
19599;SDS011;9947;57.722;12.012;2023-04-24T02:14:37;37.73;;;21.93;;
19599;SDS011;9947;57.722;12.012;2023-04-24T02:17:05;35.93;;;21.17;;
19599;SDS011;9947;57.722;12.012;2023-04-24T02:22:07;37.67;;;20.27;;
19599;SDS011;9947;57.722;12.012;2023-04-24T02:24:34;38.20;;;20.53;;
19599;SDS011;9947;57.722;12.012;2023-04-24T02:27:04;34.90;;;20.73;;
19599;SDS011;9947;57.722;12.012;2023-04-24T02:29:34;35.80;;;21.00;;
19599;SDS011;9947;57.722;12.012;2023-04-24T02:32:02;42.73;;;21.93;;
19599;SDS011;9947;57.722;12.012;2023-04-24T02:37:05;35.63;;;20.67;;
19599;SDS011;9947;57.722;12.012;2023-04-24T02:41:59;36.28;;;20.73;;
19599;SDS011;9947;57.722;12.012;2023-04-24T02:44:31;37.83;;;20.97;;
19599;SDS011;9947;57.722;12.012;2023-04-24T02:47:00;37.93;;;20.93;;
19599;SDS011;9947;57.722;12.012;2023-04-24T02:49:27;37.07;;;20.87;;
19599;SDS011;9947;57.722;12.012;2023-04-24T02:51:55;33.43;;;19.13;;
19599;SDS011;9947;57.722;12.012;2023-04-24T02:54:24;37.37;;;21.40;;
19599;SDS011;9947;57.722;12.012;2023-04-24T02:58:48;36.97;;;20.37;;
19599;SDS011;9947;57.722;12.012;2023-04-24T03:03:51;37.53;;;20.10;;
19599;SDS011;9947;57.722;12.012;2023-04-24T03:06:20;32.17;;;19.17;;
19599;SDS011;9947;57.722;12.012;2023-04-24T03:08:47;36.47;;;21.47;;
19599;SDS011;9947;57.722;12.012;2023-04-24T03:11:16;36.83;;;20.03;;
19599;SDS011;9947;57.722;12.012;2023-04-24T03:13:45;35.67;;;18.73;;
19599;SDS011;9947;57.722;12.012;2023-04-24T03:18:50;33.47;;;18.80;;
19599;SDS011;9947;57.722;12.012;2023-04-24T03:21:20;34.53;;;19.97;;
19599;SDS011;9947;57.722;12.012;2023-04-24T03:26:16;37.43;;;20.03;;
19599;SDS011;9947;57.722;12.012;2023-04-24T03:28:45;34.83;;;20.70;;
19599;SDS011;9947;57.722;12.012;2023-04-24T03:31:17;33.57;;;19.07;;
19599;SDS011;9947;57.722;12.012;2023-04-24T03:33:47;34.90;;;19.00;;
19599;SDS011;9947;57.722;12.012;2023-04-24T03:36:14;34.33;;;18.80;;
19599;SDS011;9947;57.722;12.012;2023-04-24T03:38:44;34.97;;;19.00;;
19599;SDS011;9947;57.722;12.012;2023-04-24T03:41:11;34.17;;;19.10;;
19599;SDS011;9947;57.722;12.012;2023-04-24T03:43:38;31.23;;;18.53;;
19599;SDS011;9947;57.722;12.012;2023-04-24T03:46:08;33.60;;;19.27;;
19599;SDS011;9947;57.722;12.012;2023-04-24T03:48:36;33.83;;;18.73;;
19599;SDS011;9947;57.722;12.012;2023-04-24T03:53:28;31.15;;;18.33;;
19599;SDS011;9947;57.722;12.012;2023-04-24T03:55:55;32.83;;;19.60;;
19599;SDS011;9947;57.722;12.012;2023-04-24T03:58:25;33.97;;;19.03;;
19599;SDS011;9947;57.722;12.012;2023-04-24T04:00:52;34.00;;;18.67;;
19599;SDS011;9947;57.722;12.012;2023-04-24T04:03:27;30.73;;;17.80;;
19599;SDS011;9947;57.722;12.012;2023-04-24T04:05:56;29.90;;;17.37;;
19599;SDS011;9947;57.722;12.012;2023-04-24T04:08:23;29.00;;;17.30;;
19599;SDS011;9947;57.722;12.012;2023-04-24T04:10:52;32.90;;;18.40;;
19599;SDS011;9947;57.722;12.012;2023-04-24T04:13:20;28.00;;;17.53;;
19599;SDS011;9947;57.722;12.012;2023-04-24T04:18:38;27.93;;;16.63;;
19599;SDS011;9947;57.722;12.012;2023-04-24T04:21:06;28.53;;;17.37;;
19599;SDS011;9947;57.722;12.012;2023-04-24T04:23:35;28.30;;;16.90;;
19599;SDS011;9947;57.722;12.012;2023-04-24T04:26:06;28.93;;;18.20;;
19599;SDS011;9947;57.722;12.012;2023-04-24T04:28:34;32.53;;;17.67;;
19599;SDS011;9947;57.722;12.012;2023-04-24T04:31:06;32.43;;;18.17;;
19599;SDS011;9947;57.722;12.012;2023-04-24T04:33:35;33.20;;;18.53;;
19599;SDS011;9947;57.722;12.012;2023-04-24T04:38:31;34.22;;;18.27;;
19599;SDS011;9947;57.722;12.012;2023-04-24T04:41:00;32.90;;;18.10;;
19599;SDS011;9947;57.722;12.012;2023-04-24T04:43:27;36.33;;;18.40;;
19599;SDS011;9947;57.722;12.012;2023-04-24T04:45:58;33.60;;;17.23;;
19599;SDS011;9947;57.722;12.012;2023-04-24T04:48:26;33.13;;;17.47;;
19599;SDS011;9947;57.722;12.012;2023-04-24T04:50:54;40.60;;;18.43;;
19599;SDS011;9947;57.722;12.012;2023-04-24T04:53:21;30.50;;;18.10;;
19599;SDS011;9947;57.722;12.012;2023-04-24T04:55:53;30.60;;;17.13;;
19599;SDS011;9947;57.722;12.012;2023-04-24T04:58:20;32.80;;;16.40;;
19599;SDS011;9947;57.722;12.012;2023-04-24T05:00:59;31.50;;;17.83;;
19599;SDS011;9947;57.722;12.012;2023-04-24T05:03:27;29.83;;;16.93;;
19599;SDS011;9947;57.722;12.012;2023-04-24T05:05:57;24.37;;;15.70;;
19599;SDS011;9947;57.722;12.012;2023-04-24T05:08:28;27.53;;;16.77;;
19599;SDS011;9947;57.722;12.012;2023-04-24T05:10:59;27.93;;;15.93;;
19599;SDS011;9947;57.722;12.012;2023-04-24T05:13:28;30.57;;;16.97;;
19599;SDS011;9947;57.722;12.012;2023-04-24T05:15:57;26.03;;;15.57;;
19599;SDS011;9947;57.722;12.012;2023-04-24T05:18:24;28.93;;;16.00;;
19599;SDS011;9947;57.722;12.012;2023-04-24T05:20:51;30.73;;;16.20;;
19599;SDS011;9947;57.722;12.012;2023-04-24T05:23:20;27.20;;;15.80;;
19599;SDS011;9947;57.722;12.012;2023-04-24T05:25:49;26.03;;;15.17;;
19599;SDS011;9947;57.722;12.012;2023-04-24T05:28:20;24.63;;;15.67;;
19599;SDS011;9947;57.722;12.012;2023-04-24T05:30:48;26.30;;;15.33;;
19599;SDS011;9947;57.722;12.012;2023-04-24T05:33:15;28.57;;;15.17;;
19599;SDS011;9947;57.722;12.012;2023-04-24T05:35:44;25.03;;;14.63;;
19599;SDS011;9947;57.722;12.012;2023-04-24T05:38:15;26.87;;;14.47;;
19599;SDS011;9947;57.722;12.012;2023-04-24T05:40:45;25.07;;;14.53;;
19599;SDS011;9947;57.722;12.012;2023-04-24T05:43:15;24.13;;;13.70;;
19599;SDS011;9947;57.722;12.012;2023-04-24T05:45:47;24.63;;;14.50;;
19599;SDS011;9947;57.722;12.012;2023-04-24T05:48:15;22.10;;;13.57;;
19599;SDS011;9947;57.722;12.012;2023-04-24T05:50:42;24.00;;;14.50;;
19599;SDS011;9947;57.722;12.012;2023-04-24T05:53:10;25.40;;;15.30;;
19599;SDS011;9947;57.722;12.012;2023-04-24T05:55:37;22.20;;;13.43;;
19599;SDS011;9947;57.722;12.012;2023-04-24T06:00:31;22.50;;;13.85;;
19599;SDS011;9947;57.722;12.012;2023-04-24T06:03:01;24.80;;;13.73;;
19599;SDS011;9947;57.722;12.012;2023-04-24T06:05:32;23.73;;;14.20;;
19599;SDS011;9947;57.722;12.012;2023-04-24T06:07:59;24.43;;;13.73;;
19599;SDS011;9947;57.722;12.012;2023-04-24T06:10:28;26.73;;;14.10;;
19599;SDS011;9947;57.722;12.012;2023-04-24T06:12:55;21.77;;;13.67;;
19599;SDS011;9947;57.722;12.012;2023-04-24T06:15:26;21.40;;;13.33;;
19599;SDS011;9947;57.722;12.012;2023-04-24T06:17:55;23.53;;;14.03;;
19599;SDS011;9947;57.722;12.012;2023-04-24T06:20:25;25.70;;;13.90;;
19599;SDS011;9947;57.722;12.012;2023-04-24T06:22:57;20.27;;;12.93;;
19599;SDS011;9947;57.722;12.012;2023-04-24T06:25:24;20.07;;;13.17;;
19599;SDS011;9947;57.722;12.012;2023-04-24T06:27:53;22.67;;;12.80;;
19599;SDS011;9947;57.722;12.012;2023-04-24T06:30:20;22.53;;;14.10;;
19599;SDS011;9947;57.722;12.012;2023-04-24T06:32:50;21.83;;;13.30;;
19599;SDS011;9947;57.722;12.012;2023-04-24T06:35:19;23.27;;;13.53;;
19599;SDS011;9947;57.722;12.012;2023-04-24T06:37:49;18.77;;;12.50;;
19599;SDS011;9947;57.722;12.012;2023-04-24T06:40:19;23.73;;;13.13;;
19599;SDS011;9947;57.722;12.012;2023-04-24T06:42:47;21.13;;;13.17;;
19599;SDS011;9947;57.722;12.012;2023-04-24T06:45:14;22.73;;;13.20;;
19599;SDS011;9947;57.722;12.012;2023-04-24T06:47:51;19.90;;;12.60;;
19599;SDS011;9947;57.722;12.012;2023-04-24T06:50:20;22.50;;;12.70;;
19599;SDS011;9947;57.722;12.012;2023-04-24T06:52:49;21.73;;;13.07;;
19599;SDS011;9947;57.722;12.012;2023-04-24T06:55:17;25.67;;;12.87;;
19599;SDS011;9947;57.722;12.012;2023-04-24T06:57:44;18.00;;;11.63;;
19599;SDS011;9947;57.722;12.012;2023-04-24T07:00:11;18.00;;;11.53;;
19599;SDS011;9947;57.722;12.012;2023-04-24T07:02:39;18.67;;;11.73;;
19599;SDS011;9947;57.722;12.012;2023-04-24T07:07:56;17.63;;;11.43;;
19599;SDS011;9947;57.722;12.012;2023-04-24T07:10:25;17.53;;;11.23;;
19599;SDS011;9947;57.722;12.012;2023-04-24T07:12:53;19.63;;;11.87;;
19599;SDS011;9947;57.722;12.012;2023-04-24T07:15:22;16.87;;;10.57;;
19599;SDS011;9947;57.722;12.012;2023-04-24T07:17:49;17.40;;;11.90;;
19599;SDS011;9947;57.722;12.012;2023-04-24T07:20:16;22.03;;;12.30;;
19599;SDS011;9947;57.722;12.012;2023-04-24T07:22:43;21.20;;;12.57;;
19599;SDS011;9947;57.722;12.012;2023-04-24T07:25:15;18.50;;;11.73;;
19599;SDS011;9947;57.722;12.012;2023-04-24T07:27:44;17.07;;;11.83;;
19599;SDS011;9947;57.722;12.012;2023-04-24T07:32:44;22.10;;;11.57;;
19599;SDS011;9947;57.722;12.012;2023-04-24T07:37:41;16.93;;;11.03;;
19599;SDS011;9947;57.722;12.012;2023-04-24T07:40:11;18.07;;;11.40;;
19599;SDS011;9947;57.722;12.012;2023-04-24T07:42:41;19.63;;;11.73;;
19599;SDS011;9947;57.722;12.012;2023-04-24T07:45:09;18.60;;;12.00;;
19599;SDS011;9947;57.722;12.012;2023-04-24T07:47:36;18.27;;;11.93;;
19599;SDS011;9947;57.722;12.012;2023-04-24T07:50:14;18.87;;;12.60;;
19599;SDS011;9947;57.722;12.012;2023-04-24T07:52:41;18.57;;;12.07;;
19599;SDS011;9947;57.722;12.012;2023-04-24T07:57:44;20.60;;;13.17;;
19599;SDS011;9947;57.722;12.012;2023-04-24T08:00:15;20.87;;;12.97;;
19599;SDS011;9947;57.722;12.012;2023-04-24T08:02:43;20.67;;;13.27;;
19599;SDS011;9947;57.722;12.012;2023-04-24T08:05:10;21.87;;;13.30;;
19599;SDS011;9947;57.722;12.012;2023-04-24T08:07:38;21.87;;;13.57;;
19599;SDS011;9947;57.722;12.012;2023-04-24T08:12:35;20.33;;;13.97;;
19599;SDS011;9947;57.722;12.012;2023-04-24T08:15:04;24.73;;;14.00;;
19599;SDS011;9947;57.722;12.012;2023-04-24T08:17:32;20.27;;;13.13;;
19599;SDS011;9947;57.722;12.012;2023-04-24T08:20:00;22.70;;;14.37;;
19599;SDS011;9947;57.722;12.012;2023-04-24T08:22:28;25.30;;;14.13;;
19599;SDS011;9947;57.722;12.012;2023-04-24T08:25:00;24.47;;;13.90;;
19599;SDS011;9947;57.722;12.012;2023-04-24T08:27:27;25.93;;;15.07;;
19599;SDS011;9947;57.722;12.012;2023-04-24T08:29:54;21.80;;;14.03;;
19599;SDS011;9947;57.722;12.012;2023-04-24T08:32:23;25.03;;;14.60;;
19599;SDS011;9947;57.722;12.012;2023-04-24T08:34:50;24.83;;;14.70;;
19599;SDS011;9947;57.722;12.012;2023-04-24T08:37:22;26.17;;;14.73;;
19599;SDS011;9947;57.722;12.012;2023-04-24T08:39:49;21.90;;;14.23;;
19599;SDS011;9947;57.722;12.012;2023-04-24T08:42:19;22.47;;;13.10;;
19599;SDS011;9947;57.722;12.012;2023-04-24T08:44:48;22.03;;;13.43;;
19599;SDS011;9947;57.722;12.012;2023-04-24T08:47:15;24.33;;;13.47;;
19599;SDS011;9947;57.722;12.012;2023-04-24T08:49:51;22.77;;;13.90;;
19599;SDS011;9947;57.722;12.012;2023-04-24T08:52:21;22.40;;;12.90;;
19599;SDS011;9947;57.722;12.012;2023-04-24T08:54:48;22.97;;;13.43;;
19599;SDS011;9947;57.722;12.012;2023-04-24T08:57:20;23.80;;;14.03;;
19599;SDS011;9947;57.722;12.012;2023-04-24T08:59:50;24.97;;;14.40;;
19599;SDS011;9947;57.722;12.012;2023-04-24T09:02:19;19.67;;;13.20;;
19599;SDS011;9947;57.722;12.012;2023-04-24T09:04:47;17.13;;;11.50;;
19599;SDS011;9947;57.722;12.012;2023-04-24T09:07:21;19.07;;;11.33;;
19599;SDS011;9947;57.722;12.012;2023-04-24T09:09:53;16.43;;;10.10;;
19599;SDS011;9947;57.722;12.012;2023-04-24T09:12:23;17.70;;;10.40;;
19599;SDS011;9947;57.722;12.012;2023-04-24T09:14:55;14.23;;;9.87;;
19599;SDS011;9947;57.722;12.012;2023-04-24T09:17:25;18.60;;;10.23;;
19599;SDS011;9947;57.722;12.012;2023-04-24T09:19:54;12.63;;;8.60;;
19599;SDS011;9947;57.722;12.012;2023-04-24T09:22:22;13.70;;;8.77;;
19599;SDS011;9947;57.722;12.012;2023-04-24T09:24:59;15.13;;;9.90;;
19599;SDS011;9947;57.722;12.012;2023-04-24T09:27:30;17.80;;;9.67;;
19599;SDS011;9947;57.722;12.012;2023-04-24T09:29:58;15.93;;;9.67;;
19599;SDS011;9947;57.722;12.012;2023-04-24T09:32:27;15.33;;;9.43;;
19599;SDS011;9947;57.722;12.012;2023-04-24T09:35:05;15.70;;;9.40;;
19599;SDS011;9947;57.722;12.012;2023-04-24T09:37:36;14.60;;;9.80;;
19599;SDS011;9947;57.722;12.012;2023-04-24T09:42:29;14.90;;;9.80;;
19599;SDS011;9947;57.722;12.012;2023-04-24T09:44:57;16.50;;;10.07;;
19599;SDS011;9947;57.722;12.012;2023-04-24T09:47:25;13.23;;;9.83;;
19599;SDS011;9947;57.722;12.012;2023-04-24T09:49:57;13.20;;;9.17;;
19599;SDS011;9947;57.722;12.012;2023-04-24T09:52:25;16.37;;;9.63;;
19599;SDS011;9947;57.722;12.012;2023-04-24T09:54:53;17.57;;;10.10;;
19599;SDS011;9947;57.722;12.012;2023-04-24T09:57:22;15.27;;;9.37;;
19599;SDS011;9947;57.722;12.012;2023-04-24T09:59:49;15.30;;;9.13;;
19599;SDS011;9947;57.722;12.012;2023-04-24T10:02:20;13.40;;;8.77;;
19599;SDS011;9947;57.722;12.012;2023-04-24T10:04:53;16.00;;;9.23;;
19599;SDS011;9947;57.722;12.012;2023-04-24T10:07:22;12.77;;;8.43;;
19599;SDS011;9947;57.722;12.012;2023-04-24T10:10:00;14.30;;;9.13;;
19599;SDS011;9947;57.722;12.012;2023-04-24T10:12:29;14.40;;;8.83;;
19599;SDS011;9947;57.722;12.012;2023-04-24T10:14:57;14.70;;;9.73;;
19599;SDS011;9947;57.722;12.012;2023-04-24T10:17:28;15.00;;;9.17;;
19599;SDS011;9947;57.722;12.012;2023-04-24T10:19:58;13.47;;;9.43;;
19599;SDS011;9947;57.722;12.012;2023-04-24T10:22:29;15.37;;;9.40;;
19599;SDS011;9947;57.722;12.012;2023-04-24T10:25:05;13.37;;;9.20;;
19599;SDS011;9947;57.722;12.012;2023-04-24T10:27:34;14.07;;;9.73;;
19599;SDS011;9947;57.722;12.012;2023-04-24T10:30:02;14.77;;;10.13;;
19599;SDS011;9947;57.722;12.012;2023-04-24T10:32:29;17.73;;;9.53;;
19599;SDS011;9947;57.722;12.012;2023-04-24T10:34:59;13.57;;;9.37;;
19599;SDS011;9947;57.722;12.012;2023-04-24T10:37:34;13.87;;;9.03;;
19599;SDS011;9947;57.722;12.012;2023-04-24T10:45:29;12.47;;;8.80;;
19599;SDS011;9947;57.722;12.012;2023-04-24T10:47:58;12.83;;;9.30;;
19599;SDS011;9947;57.722;12.012;2023-04-24T10:50:41;15.23;;;9.37;;
19599;SDS011;9947;57.722;12.012;2023-04-24T10:53:12;13.03;;;8.97;;
19599;SDS011;9947;57.722;12.012;2023-04-24T10:55:47;13.33;;;9.30;;
19599;SDS011;9947;57.722;12.012;2023-04-24T10:58:22;10.97;;;8.10;;
19599;SDS011;9947;57.722;12.012;2023-04-24T11:00:58;12.40;;;8.23;;
19599;SDS011;9947;57.722;12.012;2023-04-24T11:05:59;9.63;;;7.60;;
19599;SDS011;9947;57.722;12.012;2023-04-24T11:08:30;12.87;;;8.63;;
19599;SDS011;9947;57.722;12.012;2023-04-24T11:16:29;13.23;;;8.50;;
19599;SDS011;9947;57.722;12.012;2023-04-24T11:19:00;11.30;;;7.67;;
19599;SDS011;9947;57.722;12.012;2023-04-24T11:21:33;13.00;;;8.73;;
19599;SDS011;9947;57.722;12.012;2023-04-24T11:24:25;11.73;;;8.07;;
19599;SDS011;9947;57.722;12.012;2023-04-24T11:27:19;10.30;;;7.93;;
19599;SDS011;9947;57.722;12.012;2023-04-24T11:29:48;10.57;;;7.63;;
19599;SDS011;9947;57.722;12.012;2023-04-24T11:32:27;9.57;;;7.10;;
19599;SDS011;9947;57.722;12.012;2023-04-24T11:34:57;11.17;;;7.10;;
19599;SDS011;9947;57.722;12.012;2023-04-24T11:37:27;10.07;;;6.97;;
19599;SDS011;9947;57.722;12.012;2023-04-24T11:39:56;10.00;;;6.73;;
19599;SDS011;9947;57.722;12.012;2023-04-24T11:42:25;9.57;;;7.20;;
19599;SDS011;9947;57.722;12.012;2023-04-24T11:44:53;11.27;;;6.90;;
19599;SDS011;9947;57.722;12.012;2023-04-24T11:47:33;9.93;;;7.43;;
19599;SDS011;9947;57.722;12.012;2023-04-24T11:50:01;11.27;;;7.53;;
19599;SDS011;9947;57.722;12.012;2023-04-24T11:52:29;11.30;;;7.87;;
19599;SDS011;9947;57.722;12.012;2023-04-24T11:55:00;10.00;;;7.10;;
19599;SDS011;9947;57.722;12.012;2023-04-24T11:57:28;9.13;;;7.47;;
19599;SDS011;9947;57.722;12.012;2023-04-24T11:59:58;7.67;;;6.40;;
19599;SDS011;9947;57.722;12.012;2023-04-24T12:02:33;8.00;;;5.97;;
19599;SDS011;9947;57.722;12.012;2023-04-24T12:05:01;8.57;;;6.27;;
19599;SDS011;9947;57.722;12.012;2023-04-24T12:07:31;8.57;;;6.20;;
19599;SDS011;9947;57.722;12.012;2023-04-24T12:12:37;7.85;;;5.80;;
19599;SDS011;9947;57.722;12.012;2023-04-24T12:15:06;6.83;;;6.07;;
19599;SDS011;9947;57.722;12.012;2023-04-24T12:17:40;7.83;;;5.53;;
19599;SDS011;9947;57.722;12.012;2023-04-24T12:22:46;7.80;;;5.43;;
19599;SDS011;9947;57.722;12.012;2023-04-24T12:25:14;5.70;;;5.20;;
19599;SDS011;9947;57.722;12.012;2023-04-24T12:27:45;6.83;;;4.90;;
19599;SDS011;9947;57.722;12.012;2023-04-24T12:30:14;5.80;;;5.00;;
19599;SDS011;9947;57.722;12.012;2023-04-24T12:32:46;6.97;;;5.20;;
19599;SDS011;9947;57.722;12.012;2023-04-24T12:35:18;6.50;;;4.87;;
19599;SDS011;9947;57.722;12.012;2023-04-24T12:37:53;8.30;;;4.97;;
19599;SDS011;9947;57.722;12.012;2023-04-24T12:40:43;7.43;;;4.83;;
19599;SDS011;9947;57.722;12.012;2023-04-24T12:43:24;7.07;;;4.80;;
19599;SDS011;9947;57.722;12.012;2023-04-24T12:45:52;5.37;;;4.87;;
19599;SDS011;9947;57.722;12.012;2023-04-24T12:48:22;4.90;;;4.23;;
19599;SDS011;9947;57.722;12.012;2023-04-24T12:50:49;5.67;;;4.40;;
19599;SDS011;9947;57.722;12.012;2023-04-24T12:53:16;7.43;;;4.83;;
19599;SDS011;9947;57.722;12.012;2023-04-24T12:55:46;8.27;;;4.47;;
19599;SDS011;9947;57.722;12.012;2023-04-24T12:58:18;5.93;;;4.10;;
19599;SDS011;9947;57.722;12.012;2023-04-24T13:00:47;5.83;;;4.63;;
19599;SDS011;9947;57.722;12.012;2023-04-24T13:03:16;7.27;;;4.93;;
19599;SDS011;9947;57.722;12.012;2023-04-24T13:05:46;5.70;;;4.47;;
19599;SDS011;9947;57.722;12.012;2023-04-24T13:08:13;5.00;;;4.50;;
19599;SDS011;9947;57.722;12.012;2023-04-24T13:10:40;6.07;;;4.13;;
19599;SDS011;9947;57.722;12.012;2023-04-24T13:13:07;5.93;;;4.40;;
19599;SDS011;9947;57.722;12.012;2023-04-24T13:15:34;4.80;;;4.37;;
19599;SDS011;9947;57.722;12.012;2023-04-24T13:18:02;5.03;;;4.53;;
19599;SDS011;9947;57.722;12.012;2023-04-24T13:20:31;9.10;;;4.63;;
19599;SDS011;9947;57.722;12.012;2023-04-24T13:23:02;5.07;;;4.57;;
19599;SDS011;9947;57.722;12.012;2023-04-24T13:25:35;7.00;;;4.80;;
19599;SDS011;9947;57.722;12.012;2023-04-24T13:28:04;4.90;;;4.37;;
19599;SDS011;9947;57.722;12.012;2023-04-24T13:30:36;7.63;;;4.43;;
19599;SDS011;9947;57.722;12.012;2023-04-24T13:33:03;5.70;;;4.77;;
19599;SDS011;9947;57.722;12.012;2023-04-24T13:35:30;5.73;;;4.37;;
19599;SDS011;9947;57.722;12.012;2023-04-24T13:37:59;5.33;;;4.40;;
19599;SDS011;9947;57.722;12.012;2023-04-24T13:40:32;6.37;;;4.37;;
19599;SDS011;9947;57.722;12.012;2023-04-24T13:43:00;4.43;;;3.80;;
19599;SDS011;9947;57.722;12.012;2023-04-24T13:45:29;7.70;;;4.33;;
19599;SDS011;9947;57.722;12.012;2023-04-24T13:47:56;5.20;;;4.30;;
19599;SDS011;9947;57.722;12.012;2023-04-24T13:50:26;5.07;;;4.10;;
19599;SDS011;9947;57.722;12.012;2023-04-24T13:52:54;4.80;;;4.00;;
19599;SDS011;9947;57.722;12.012;2023-04-24T13:55:25;5.57;;;4.93;;
19599;SDS011;9947;57.722;12.012;2023-04-24T13:57:55;5.90;;;4.30;;
19599;SDS011;9947;57.722;12.012;2023-04-24T14:00:25;4.30;;;3.90;;
19599;SDS011;9947;57.722;12.012;2023-04-24T14:02:55;5.40;;;3.93;;
19599;SDS011;9947;57.722;12.012;2023-04-24T14:05:23;6.67;;;4.00;;
19599;SDS011;9947;57.722;12.012;2023-04-24T14:07:51;5.63;;;4.53;;
19599;SDS011;9947;57.722;12.012;2023-04-24T14:10:18;6.33;;;4.60;;
19599;SDS011;9947;57.722;12.012;2023-04-24T14:12:47;4.30;;;3.90;;
19599;SDS011;9947;57.722;12.012;2023-04-24T14:15:19;4.60;;;4.10;;
19599;SDS011;9947;57.722;12.012;2023-04-24T14:17:48;4.53;;;4.10;;
19599;SDS011;9947;57.722;12.012;2023-04-24T14:20:17;6.00;;;4.33;;
19599;SDS011;9947;57.722;12.012;2023-04-24T14:22:59;4.80;;;4.03;;
19599;SDS011;9947;57.722;12.012;2023-04-24T14:25:26;5.73;;;4.83;;
19599;SDS011;9947;57.722;12.012;2023-04-24T14:27:54;4.90;;;4.40;;
19599;SDS011;9947;57.722;12.012;2023-04-24T14:30:22;5.07;;;4.20;;
19599;SDS011;9947;57.722;12.012;2023-04-24T14:32:49;9.77;;;5.50;;
19599;SDS011;9947;57.722;12.012;2023-04-24T14:35:16;9.10;;;6.17;;
19599;SDS011;9947;57.722;12.012;2023-04-24T14:37:48;14.53;;;6.93;;
19599;SDS011;9947;57.722;12.012;2023-04-24T14:40:18;10.13;;;7.37;;
19599;SDS011;9947;57.722;12.012;2023-04-24T14:42:46;12.97;;;7.03;;
19599;SDS011;9947;57.722;12.012;2023-04-24T14:45:17;11.93;;;7.20;;
19599;SDS011;9947;57.722;12.012;2023-04-24T14:47:46;10.63;;;7.43;;
19599;SDS011;9947;57.722;12.012;2023-04-24T14:50:14;10.37;;;7.43;;
19599;SDS011;9947;57.722;12.012;2023-04-24T14:52:41;13.93;;;7.73;;
19599;SDS011;9947;57.722;12.012;2023-04-24T14:55:10;12.60;;;7.63;;
19599;SDS011;9947;57.722;12.012;2023-04-24T14:57:37;11.17;;;7.50;;
19599;SDS011;9947;57.722;12.012;2023-04-24T15:00:06;11.63;;;7.43;;
19599;SDS011;9947;57.722;12.012;2023-04-24T15:02:36;10.23;;;7.70;;
19599;SDS011;9947;57.722;12.012;2023-04-24T15:05:10;11.93;;;7.80;;
19599;SDS011;9947;57.722;12.012;2023-04-24T15:07:38;8.83;;;6.90;;
19599;SDS011;9947;57.722;12.012;2023-04-24T15:10:07;15.13;;;7.57;;
19599;SDS011;9947;57.722;12.012;2023-04-24T15:12:35;9.63;;;7.20;;
19599;SDS011;9947;57.722;12.012;2023-04-24T15:15:06;11.47;;;7.83;;
19599;SDS011;9947;57.722;12.012;2023-04-24T15:17:36;8.87;;;6.93;;
19599;SDS011;9947;57.722;12.012;2023-04-24T15:20:05;10.27;;;6.60;;
19599;SDS011;9947;57.722;12.012;2023-04-24T15:22:34;9.20;;;7.33;;
19599;SDS011;9947;57.722;12.012;2023-04-24T15:25:04;8.83;;;6.37;;
19599;SDS011;9947;57.722;12.012;2023-04-24T15:27:41;10.53;;;7.67;;
19599;SDS011;9947;57.722;12.012;2023-04-24T15:30:10;12.10;;;7.53;;
19599;SDS011;9947;57.722;12.012;2023-04-24T15:32:38;9.10;;;6.87;;
19599;SDS011;9947;57.722;12.012;2023-04-24T15:35:07;9.47;;;6.97;;
19599;SDS011;9947;57.722;12.012;2023-04-24T15:37:39;11.70;;;7.07;;
19599;SDS011;9947;57.722;12.012;2023-04-24T15:40:07;15.73;;;7.70;;
19599;SDS011;9947;57.722;12.012;2023-04-24T15:42:36;9.83;;;7.10;;
19599;SDS011;9947;57.722;12.012;2023-04-24T15:45:03;9.60;;;6.93;;
19599;SDS011;9947;57.722;12.012;2023-04-24T15:47:32;10.33;;;7.57;;